Terminal Aerodrome Forecast
Issued by NWS Cleveland, OH

Home | Current Version | Previous Version | Graphics & Text | Print | Product List | Glossary Off
Versions: 1 2 3 4 5 6 7 8 9 10 11 12 13 14 15 16 17 18 19 20 21 22 23 24 25

000
FTUS41 KCLE 240300 AAA
TAFTOL
TAF AMD
KTOL 240322Z 2403/2424 00000KT P6SM BKN200
     FM240900 00000KT 4SM BR BKN200
      TEMPO 2409/2413 2SM BR
     FM241400 25005KT P6SM SCT035 BKN150
     FM241600 25006KT P6SM BKN035 OVC100=

USA.gov is the U.S. government's official web portal to all federal, state and local government web resources and services.